createdAt,value
2023-04-02T00:01:00.939Z,26.83
2023-04-02T00:03:42.773Z,27.77
2023-04-02T00:06:30.472Z,28.40
2023-04-02T00:09:22.950Z,29.10
2023-04-02T00:11:55.996Z,27.55
2023-04-02T00:14:27.305Z,27.52
2023-04-02T00:16:57.044Z,28.92
2023-04-02T00:19:48.763Z,28.67
2023-04-02T00:22:20.087Z,27.20
2023-04-02T00:24:52.673Z,28.58
2023-04-02T00:27:21.376Z,27.67
2023-04-02T00:29:51.856Z,28.50
2023-04-02T00:32:30.100Z,29.15
2023-04-02T00:34:59.625Z,28.58
2023-04-02T00:37:38.874Z,28.42
2023-04-02T00:40:21.115Z,28.90
2023-04-02T00:42:50.450Z,28.23
2023-04-02T00:45:30.269Z,26.90
2023-04-02T00:48:01.244Z,28.35
2023-04-02T00:50:40.644Z,27.52
2023-04-02T00:53:15.878Z,27.73
2023-04-02T00:55:44.735Z,25.42
2023-04-02T00:58:32.221Z,27.27
2023-04-02T01:01:02.142Z,26.10
2023-04-02T01:03:37.139Z,28.63
2023-04-02T01:06:14.334Z,24.10
2023-04-02T01:09:10.490Z,25.23
2023-04-02T01:11:57.402Z,27.25
2023-04-02T01:14:40.477Z,25.25
2023-04-02T01:17:18.650Z,26.70
2023-04-02T01:20:11.701Z,27.13
2023-04-02T01:23:24.153Z,25.65
2023-04-02T01:26:06.691Z,27.77
2023-04-02T01:28:53.325Z,26.27
2023-04-02T01:31:21.912Z,27.17
2023-04-02T01:33:49.580Z,28.33
2023-04-02T01:36:47.165Z,26.67
2023-04-02T01:39:34.052Z,27.02
2023-04-02T01:42:18.522Z,26.45
2023-04-02T01:44:52.603Z,28.00
2023-04-02T01:47:28.933Z,28.15
2023-04-02T01:50:02.745Z,27.70
2023-04-02T01:52:43.778Z,28.83
2023-04-02T01:55:15.632Z,28.00
2023-04-02T01:57:49.540Z,27.27
2023-04-02T02:00:19.258Z,29.55
2023-04-02T02:02:52.236Z,27.98
2023-04-02T02:05:23.283Z,30.77
2023-04-02T02:07:54.685Z,27.83
2023-04-02T02:10:29.596Z,27.95
2023-04-02T02:13:00.336Z,31.02
2023-04-02T02:15:29.348Z,28.45
2023-04-02T02:18:03.240Z,31.85
2023-04-02T02:20:33.142Z,29.20
2023-04-02T02:23:03.955Z,27.27
2023-04-02T02:25:36.326Z,28.95
2023-04-02T02:28:15.758Z,29.25
2023-04-02T02:30:51.335Z,28.33
2023-04-02T02:33:33.794Z,29.35
2023-04-02T02:36:29.542Z,27.40
2023-04-02T02:39:30.680Z,29.65
2023-04-02T02:42:02.641Z,27.80
2023-04-02T02:44:36.027Z,31.70
2023-04-02T02:47:16.712Z,31.45
2023-04-02T02:49:51.880Z,31.35
2023-04-02T02:52:32.290Z,32.28
2023-04-02T02:55:20.873Z,31.83
2023-04-02T02:58:32.821Z,31.75
2023-04-02T03:01:12.088Z,35.08
2023-04-02T03:03:42.811Z,31.23
2023-04-02T03:06:16.854Z,30.98
2023-04-02T03:08:58.286Z,33.88
2023-04-02T03:11:49.469Z,33.28
2023-04-02T03:14:35.587Z,32.42
2023-04-02T03:17:12.826Z,31.17
2023-04-02T03:19:48.561Z,31.65
2023-04-02T03:22:36.058Z,31.52
2023-04-02T03:25:18.208Z,31.65
2023-04-02T03:27:49.959Z,29.08
2023-04-02T03:30:43.593Z,30.25
2023-04-02T03:36:25.807Z,28.00
2023-04-02T03:38:58.000Z,28.65
2023-04-02T03:42:09.856Z,29.55
2023-04-02T03:44:50.508Z,28.92
2023-04-02T03:47:32.205Z,30.05
2023-04-02T03:50:28.976Z,27.17
2023-04-02T03:53:01.614Z,26.85
2023-04-02T03:55:33.898Z,28.20
2023-04-02T03:58:41.210Z,26.42
2023-04-02T04:01:24.360Z,26.08
2023-04-02T04:04:02.208Z,28.55
2023-04-02T04:06:33.193Z,28.95
2023-04-02T04:09:19.411Z,26.33
2023-04-02T04:11:52.724Z,26.40
2023-04-02T04:14:34.023Z,26.70
2023-04-02T04:17:13.941Z,27.92
2023-04-02T04:19:58.595Z,27.67
2023-04-02T04:22:33.281Z,27.85
2023-04-02T04:25:29.904Z,27.33
2023-04-02T04:28:27.270Z,27.95
2023-04-02T04:31:09.597Z,29.48
2023-04-02T04:33:46.344Z,29.75
2023-04-02T04:36:28.749Z,28.52
2023-04-02T04:39:14.686Z,29.40
2023-04-02T04:41:49.262Z,29.73
2023-04-02T04:44:24.309Z,28.80
2023-04-02T04:47:02.576Z,28.45
2023-04-02T04:49:45.148Z,27.08
2023-04-02T04:52:21.112Z,27.17
2023-04-02T04:57:38.544Z,25.08
2023-04-02T05:00:29.004Z,27.92
2023-04-02T05:03:17.381Z,28.67
2023-04-02T05:05:46.437Z,25.38
2023-04-02T05:08:23.215Z,28.70
2023-04-02T05:11:01.541Z,26.33
2023-04-02T05:13:37.725Z,26.80
2023-04-02T05:16:20.753Z,30.13
2023-04-02T05:19:08.983Z,23.60
2023-04-02T05:21:37.317Z,18.17
2023-04-02T05:24:42.363Z,20.52
2023-04-02T05:27:18.778Z,19.65
2023-04-02T05:30:01.147Z,20.63
2023-04-02T05:32:34.864Z,22.95
2023-04-02T05:35:06.668Z,21.48
2023-04-02T05:37:39.567Z,22.75
2023-04-02T05:40:21.283Z,23.88
2023-04-02T05:42:53.254Z,22.98
2023-04-02T05:45:21.792Z,23.58
2023-04-02T05:47:53.034Z,24.13
2023-04-02T05:50:30.799Z,26.70
2023-04-02T05:53:08.896Z,26.80
2023-04-02T05:55:48.960Z,27.58
2023-04-02T05:58:35.256Z,27.77
2023-04-02T06:01:42.202Z,29.30
2023-04-02T06:04:30.105Z,27.40
2023-04-02T06:07:10.163Z,30.95
2023-04-02T06:10:03.474Z,30.85
2023-04-02T06:12:55.551Z,32.67
2023-04-02T06:15:24.332Z,29.02
2023-04-02T06:18:01.872Z,30.13
2023-04-02T06:20:30.843Z,31.63
2023-04-02T06:23:19.935Z,31.48
2023-04-02T06:25:58.919Z,30.85
2023-04-02T06:28:33.349Z,32.40
2023-04-02T06:31:08.264Z,33.03
2023-04-02T06:33:37.944Z,31.83
2023-04-02T06:36:08.547Z,32.20
2023-04-02T06:38:38.111Z,32.47
2023-04-02T06:41:20.660Z,32.07
2023-04-02T06:44:21.620Z,30.35
2023-04-02T06:47:22.312Z,30.48
2023-04-02T06:50:33.597Z,30.58
2023-04-02T06:53:06.499Z,31.02
2023-04-02T06:56:08.956Z,31.83
2023-04-02T06:58:36.678Z,32.03
2023-04-02T07:01:04.866Z,32.22
2023-04-02T07:03:41.932Z,30.48
2023-04-02T07:06:28.365Z,28.55
2023-04-02T07:08:59.620Z,30.13
2023-04-02T07:11:28.140Z,30.40
2023-04-02T07:13:59.187Z,30.42
2023-04-02T07:16:29.595Z,29.67
2023-04-02T07:19:00.841Z,28.20
2023-04-02T07:21:32.252Z,29.52
2023-04-02T07:24:00.432Z,30.23
2023-04-02T07:26:28.478Z,30.80
2023-04-02T07:28:56.954Z,31.75
2023-04-02T07:31:28.032Z,30.25
2023-04-02T07:34:00.004Z,31.17
2023-04-02T07:36:30.762Z,31.83
2023-04-02T07:38:59.646Z,29.92
2023-04-02T07:41:27.754Z,28.60
2023-04-02T07:43:55.460Z,27.27
2023-04-02T07:46:23.230Z,25.88
2023-04-02T07:48:51.095Z,27.25
2023-04-02T07:51:20.332Z,27.08
2023-04-02T07:53:56.347Z,26.17
2023-04-02T07:56:25.592Z,26.33
2023-04-02T07:58:53.252Z,24.95
2023-04-02T08:01:24.500Z,24.98
2023-04-02T08:03:58.022Z,24.15
2023-04-02T08:06:26.243Z,27.02
2023-04-02T08:08:54.630Z,24.23
2023-04-02T08:11:22.314Z,25.08
2023-04-02T08:13:50.829Z,26.45
2023-04-02T08:16:19.084Z,25.27
2023-04-02T08:18:47.942Z,25.98
2023-04-02T08:21:16.668Z,27.33
2023-04-02T08:23:45.030Z,26.98
2023-04-02T08:26:18.980Z,23.88
2023-04-02T08:28:46.767Z,29.05
2023-04-02T08:31:14.570Z,21.67
2023-04-02T08:33:42.358Z,12.82
2023-04-02T08:36:16.935Z,10.07
2023-04-02T08:38:45.564Z,11.80
2023-04-02T08:41:38.959Z,11.93
2023-04-02T08:44:23.463Z,11.27
2023-04-02T08:47:04.880Z,11.55
2023-04-02T08:49:54.874Z,12.48
2023-04-02T08:52:24.337Z,12.88
2023-04-02T08:54:53.569Z,14.18
2023-04-02T08:57:30.637Z,15.38
2023-04-02T09:00:22.062Z,15.27
2023-04-02T09:02:58.024Z,17.45
2023-04-02T09:05:31.396Z,13.27
2023-04-02T09:08:05.283Z,14.55
2023-04-02T09:13:20.692Z,11.43
2023-04-02T09:15:50.678Z,10.18
2023-04-02T09:18:20.093Z,9.45
2023-04-02T09:20:49.503Z,8.98
2023-04-02T09:23:23.226Z,9.40
2023-04-02T09:28:32.367Z,14.05
2023-04-02T09:31:18.243Z,15.20
2023-04-02T09:33:49.462Z,13.90
2023-04-02T09:36:32.846Z,10.98
2023-04-02T09:39:07.145Z,11.32
2023-04-02T09:41:37.230Z,9.52
2023-04-02T09:44:21.347Z,8.93
2023-04-02T09:49:25.669Z,7.53
2023-04-02T09:52:11.989Z,8.00
2023-04-02T09:54:41.707Z,7.40
2023-04-02T09:57:25.380Z,8.30
2023-04-02T10:00:39.650Z,8.05
2023-04-02T10:03:33.083Z,8.43
2023-04-02T10:06:11.087Z,8.38
2023-04-02T10:08:42.418Z,8.10
2023-04-02T10:11:43.708Z,7.53
2023-04-02T10:14:23.142Z,8.77
2023-04-02T10:16:55.510Z,8.70
2023-04-02T10:19:26.717Z,8.43
2023-04-02T10:21:57.189Z,9.35
2023-04-02T10:24:29.310Z,9.70
2023-04-02T10:27:29.681Z,9.30
2023-04-02T10:30:20.469Z,10.80
2023-04-02T10:33:00.957Z,9.80
2023-04-02T10:35:43.491Z,9.20
2023-04-02T10:38:52.921Z,10.45
2023-04-02T10:41:49.311Z,11.13
2023-04-02T10:44:32.326Z,10.48
2023-04-02T10:47:33.104Z,12.17
2023-04-02T10:50:38.494Z,13.73
2023-04-02T10:53:16.821Z,14.23
2023-04-02T10:55:49.265Z,14.77
2023-04-02T10:58:50.678Z,14.00
2023-04-02T11:01:24.068Z,12.10
2023-04-02T11:04:00.207Z,13.00
2023-04-02T11:06:44.258Z,11.48
2023-04-02T11:09:26.787Z,10.18
2023-04-02T11:11:58.020Z,8.52
2023-04-02T11:14:31.531Z,9.35
